Terminal Aerodrome Forecast
Issued by NWS

Current Version | Previous Version | Text Only | Print | Product List | Glossary On
Versions: 1 2 3 4 5 6 7 8 9 10 11 12
000
FTUS42 KTBW 132326
TAFLAL
TAF
KLAL 132326Z 1400/1424 VRB03KT P6SM SKC
     FM141300 19004KT P6SM SKC
     FM141600 23008KT P6SM BKN060=

USA.gov is the U.S. government's official web portal to all federal, state and local government web resources and services.